Time;durP1;ratioP1;P1;durP2;ratioP2;P2;SDS_P1;SDS_P2;PMS_P1;PMS_P2;Temp;Humidity;BMP_temperature;BMP_pressure;BME280_temperature;BME280_humidity;BME280_pressure;Samples;Min_cycle;Max_cycle;Signal;HPM_P1;HPM_P2
2023/07/31 00:00:13;;;;;;;4.55;1.20;;;;;;;25.55;39.45;99038.84;3107136;28;20049;-71
2023/07/31 00:01:44;;;;;;;7.53;1.40;;;;;;;25.53;39.88;99041.72;3099539;28;20494;-71
2023/07/31 00:03:15;;;;;;;7.75;1.15;;;;;;;25.56;39.89;99041.34;3107739;28;20046;-69
2023/07/31 00:04:48;;;;;;;2.63;1.05;;;;;;;25.56;39.79;99037.88;3108066;28;20057;-69
2023/07/31 00:06:20;;;;;;;4.90;1.17;;;;;;;25.54;39.62;99042.53;3107550;28;20531;-70
2023/07/31 00:07:53;;;;;;;5.32;1.30;;;;;;;25.54;39.48;99047.88;3099170;28;20085;-71
2023/07/31 00:09:24;;;;;;;3.20;1.13;;;;;;;25.50;39.45;99046.59;3095494;28;20058;-72
2023/07/31 00:10:56;;;;;;;3.83;1.17;;;;;;;25.51;39.82;99048.25;3095726;28;20188;-71
2023/07/31 00:12:27;;;;;;;2.58;1.40;;;;;;;25.51;39.92;99049.06;3095684;28;20443;-71
2023/07/31 00:13:59;;;;;;;2.65;1.13;;;;;;;25.50;39.51;99042.09;3104226;28;20125;-71
2023/07/31 00:15:31;;;;;;;2.08;1.30;;;;;;;25.51;39.92;99043.75;3102636;28;20432;-70
2023/07/31 00:17:02;;;;;;;2.40;1.10;;;;;;;25.48;39.99;99040.63;3106128;28;20140;-70
2023/07/31 00:18:33;;;;;;;3.67;1.30;;;;;;;25.47;40.08;99045.13;3108412;28;20068;-71
2023/07/31 00:20:08;;;;;;;2.20;1.40;;;;;;;25.47;39.76;99055.78;3110132;28;20487;-71
2023/07/31 00:21:39;;;;;;;6.03;1.55;;;;;;;25.40;40.09;99061.00;3106357;28;20188;-70
2023/07/31 00:23:11;;;;;;;6.45;1.52;;;;;;;25.40;40.11;99061.00;3106508;28;20169;-70
2023/07/31 00:24:41;;;;;;;3.80;1.20;;;;;;;25.41;39.73;99061.84;3098047;28;20121;-74
2023/07/31 00:26:13;;;;;;;2.47;1.13;;;;;;;25.39;40.17;99059.34;3097921;28;20589;-74
2023/07/31 00:27:45;;;;;;;4.93;1.00;;;;;;;25.36;40.09;99059.72;3102392;28;20401;-74
2023/07/31 00:29:17;;;;;;;3.05;1.70;;;;;;;25.37;39.79;99065.88;3102582;28;20077;-73
2023/07/31 00:30:48;;;;;;;3.22;1.17;;;;;;;25.38;39.82;99064.88;3109969;28;20050;-75
2023/07/31 00:32:20;;;;;;;3.92;1.10;;;;;;;25.41;40.11;99064.53;3109963;28;20046;-74
2023/07/31 00:33:51;;;;;;;2.30;1.10;;;;;;;25.43;39.83;99062.47;3109816;28;20132;-74
2023/07/31 00:35:24;;;;;;;2.53;1.20;;;;;;;25.42;39.94;99067.00;3098764;28;20046;-75
2023/07/31 00:36:55;;;;;;;3.10;1.05;;;;;;;25.38;40.19;99062.22;3109819;28;20057;-76
2023/07/31 00:38:26;;;;;;;3.90;1.10;;;;;;;25.36;39.83;99061.56;3104751;28;20042;-75
2023/07/31 00:39:57;;;;;;;5.95;1.35;;;;;;;25.35;39.94;99060.75;3106237;28;20053;-74
2023/07/31 00:41:29;;;;;;;6.72;1.92;;;;;;;25.36;39.89;99061.56;3109206;28;20071;-74
2023/07/31 00:43:00;;;;;;;7.22;1.75;;;;;;;25.38;40.04;99062.22;3099105;28;20046;-73
2023/07/31 00:44:31;;;;;;;6.13;1.55;;;;;;;25.40;39.95;99060.19;3097783;28;20153;-73
2023/07/31 00:46:03;;;;;;;2.53;1.38;;;;;;;25.43;40.44;99062.47;3106869;28;20416;-75
2023/07/31 00:47:34;;;;;;;2.20;1.15;;;;;;;25.43;39.98;99063.31;3109732;28;20054;-76
2023/07/31 00:49:07;;;;;;;4.68;1.27;;;;;;;25.43;40.00;99063.31;3109791;28;20061;-75
2023/07/31 00:50:39;;;;;;;5.57;1.90;;;;;;;25.43;40.43;99063.31;3109835;28;20054;-74
2023/07/31 00:52:11;;;;;;;3.47;1.43;;;;;;;25.39;40.49;99064.69;3107924;28;20045;-74
2023/07/31 00:53:43;;;;;;;3.22;1.35;;;;;;;25.38;40.13;99059.56;3102072;28;20442;-75
2023/07/31 00:55:15;;;;;;;2.50;1.20;;;;;;;25.40;40.52;99068.19;3101303;28;20050;-74
2023/07/31 00:56:46;;;;;;;4.15;1.50;;;;;;;25.43;40.06;99073.13;3102249;28;20108;-74
2023/07/31 00:58:18;;;;;;;6.15;1.33;;;;;;;25.44;40.10;99064.16;3100022;28;20050;-74
2023/07/31 00:59:49;;;;;;;4.13;1.30;;;;;;;25.43;40.04;99065.97;3109856;28;20046;-74
2023/07/31 01:01:21;;;;;;;3.40;1.23;;;;;;;25.44;40.54;99074.81;3109766;28;20056;-73
2023/07/31 01:02:53;;;;;;;2.05;1.20;;;;;;;25.44;40.23;99072.16;3109652;28;20054;-74
2023/07/31 01:04:24;;;;;;;4.38;1.90;;;;;;;25.46;40.10;99066.63;3109677;28;20068;-74
2023/07/31 01:06:09;;;;;;;4.82;1.40;;;;;;;25.46;40.11;99075.44;3109416;28;20045;-73
2023/07/31 01:07:50;;;;;;;5.35;1.38;;;;;;;25.41;40.61;99068.00;3109916;28;20081;-74
2023/07/31 01:09:34;;;;;;;3.97;1.63;;;;;;;25.45;40.50;99070.31;3090929;28;20042;-74
2023/07/31 01:11:14;;;;;;;2.25;1.20;;;;;;;25.43;40.20;99079.28;3098841;28;20527;-74
2023/07/31 01:12:46;;;;;;;5.97;1.27;;;;;;;25.40;40.24;99073.50;3109332;28;20049;-74
2023/07/31 01:14:18;;;;;;;4.32;1.50;;;;;;;25.39;40.75;99077.19;3109607;28;20073;-74
2023/07/31 01:15:49;;;;;;;5.72;2.08;;;;;;;25.35;40.41;99079.41;3103424;28;20062;-74
2023/07/31 01:17:21;;;;;;;6.10;1.92;;;;;;;25.36;40.80;99077.56;3109715;28;20438;-73
2023/07/31 01:18:51;;;;;;;5.18;1.40;;;;;;;25.36;40.53;99073.06;3109632;28;20050;-77
2023/07/31 01:20:25;;;;;;;5.55;2.08;;;;;;;25.39;40.64;99079.84;3109335;28;20075;-76
2023/07/31 01:22:23;;;;;;;3.92;1.92;;;;;;;25.34;40.51;99076.91;3109553;28;20549;-75
2023/07/31 01:24:20;;;;;;;3.20;1.90;;;;;;;25.26;40.92;99074.31;3100703;28;20046;-75
2023/07/31 01:26:06;;;;;;;6.30;2.22;;;;;;;25.19;40.64;99068.88;3100847;28;20056;-73
2023/07/31 01:27:44;;;;;;;4.45;2.50;;;;;;;25.19;40.80;99066.22;3109203;28;20108;-73
2023/07/31 01:29:25;;;;;;;3.63;2.35;;;;;;;25.16;41.18;99071.91;3108879;28;20056;-73
2023/07/31 01:31:01;;;;;;;5.95;1.92;;;;;;;25.15;41.15;99071.09;3107430;28;20166;-73
2023/07/31 01:32:33;;;;;;;6.40;2.55;;;;;;;25.14;41.36;99074.78;3109574;28;20076;-73
2023/07/31 01:34:05;;;;;;;6.78;2.50;;;;;;;25.14;41.27;99076.59;3109094;28;20494;-73
2023/07/31 01:35:37;;;;;;;5.95;2.45;;;;;;;25.09;41.17;99078.97;3100635;28;20054;-73
2023/07/31 01:37:09;;;;;;;5.18;2.15;;;;;;;25.05;41.58;99075.78;3109090;28;20073;-72
2023/07/31 01:38:41;;;;;;;3.60;2.10;;;;;;;24.98;41.54;99074.88;3104078;28;20108;-73
2023/07/31 01:40:12;;;;;;;5.43;2.30;;;;;;;24.93;41.75;99070.06;3106192;28;20050;-72
2023/07/31 01:41:45;;;;;;;4.78;2.20;;;;;;;24.94;41.75;99071.75;3096907;28;20077;-73
2023/07/31 01:43:17;;;;;;;3.08;2.03;;;;;;;24.90;41.45;99080.25;3097020;28;20062;-69
2023/07/31 01:44:47;;;;;;;3.85;2.10;;;;;;;24.92;41.78;99070.25;3097499;28;20050;-69
2023/07/31 01:46:19;;;;;;;4.55;2.30;;;;;;;24.91;41.43;99064.13;3108249;28;20052;-69
2023/07/31 01:47:50;;;;;;;4.05;2.42;;;;;;;24.90;41.77;99072.28;3108737;28;20049;-69
2023/07/31 01:49:22;;;;;;;3.70;2.22;;;;;;;24.86;41.80;99071.81;3109082;28;20053;-68
2023/07/31 01:50:53;;;;;;;6.25;2.65;;;;;;;24.86;41.72;99065.66;3109070;28;20065;-69
2023/07/31 01:52:28;;;;;;;3.70;2.25;;;;;;;24.89;41.49;99063.47;3103963;28;20473;-69
2023/07/31 01:53:58;;;;;;;7.25;3.10;;;;;;;24.90;41.43;99061.63;3094691;28;20050;-69
2023/07/31 01:55:30;;;;;;;7.22;2.70;;;;;;;24.89;41.68;99060.78;3103763;28;20439;-70
2023/07/31 01:57:03;;;;;;;8.98;2.70;;;;;;;24.90;41.45;99065.09;3109400;28;20053;-70
2023/07/31 01:58:35;;;;;;;5.70;2.88;;;;;;;24.89;41.26;99067.97;3109258;28;20050;-70
2023/07/31 02:00:07;;;;;;;6.00;3.22;;;;;;;24.92;41.77;99059.63;3108993;28;20058;-70
2023/07/31 02:01:38;;;;;;;6.03;2.40;;;;;;;24.95;41.66;99059.25;3109154;28;20041;-69
2023/07/31 02:03:09;;;;;;;5.43;2.85;;;;;;;24.96;41.31;99059.09;3108902;28;20057;-69
2023/07/31 02:04:41;;;;;;;7.53;3.03;;;;;;;24.97;41.70;99062.56;3109098;28;20508;-69
2023/07/31 02:06:12;;;;;;;6.13;3.22;;;;;;;25.00;41.75;99069.38;3107821;28;20520;-69
2023/07/31 02:07:44;;;;;;;7.65;3.25;;;;;;;24.98;41.26;99072.22;3096756;28;20050;-69
2023/07/31 02:09:14;;;;;;;8.05;3.38;;;;;;;24.96;41.47;99068.88;3096709;28;20054;-69
2023/07/31 02:10:46;;;;;;;4.38;3.10;;;;;;;24.94;41.85;99073.59;3096731;28;20058;-69
2023/07/31 02:12:19;;;;;;;6.38;3.30;;;;;;;24.94;41.82;99073.59;3107635;28;20057;-69
2023/07/31 02:13:51;;;;;;;7.32;4.07;;;;;;;24.91;41.90;99069.44;3108906;28;20058;-67
2023/07/31 02:15:21;;;;;;;12.23;3.90;;;;;;;24.93;41.73;99067.41;3105921;28;25921;-69
2023/07/31 02:16:53;;;;;;;8.23;3.95;;;;;;;24.92;41.34;99068.44;3105625;28;20049;-68
2023/07/31 02:18:24;;;;;;;5.72;3.58;;;;;;;24.89;41.58;99067.97;3108942;28;20593;-69
2023/07/31 02:19:56;;;;;;;12.30;3.88;;;;;;;24.84;41.50;99068.47;3108802;28;20113;-69
2023/07/31 02:21:27;;;;;;;5.97;2.90;;;;;;;24.81;41.61;99060.03;3104712;28;20057;-69
2023/07/31 02:22:59;;;;;;;5.82;2.97;;;;;;;24.80;41.39;99066.38;3098875;28;20072;-69
2023/07/31 02:24:29;;;;;;;8.05;3.00;;;;;;;24.77;41.61;99069.41;3096340;28;20054;-69
2023/07/31 02:26:01;;;;;;;6.82;2.83;;;;;;;24.76;42.05;99065.91;3100879;28;20063;-69
2023/07/31 02:27:34;;;;;;;3.83;2.38;;;;;;;24.81;41.78;99065.34;3102797;28;20061;-69
2023/07/31 02:29:06;;;;;;;4.45;2.17;;;;;;;24.78;42.29;99060.38;3108579;28;20132;-69
2023/07/31 02:30:37;;;;;;;5.20;2.20;;;;;;;24.80;41.88;99051.22;3107112;28;20541;-71
2023/07/31 02:32:08;;;;;;;13.02;2.60;;;;;;;24.79;42.43;99051.38;3097919;28;20055;-72
2023/07/31 02:33:39;;;;;;;3.35;1.98;;;;;;;24.80;42.29;99053.88;3108553;28;20061;-71
2023/07/31 02:35:15;;;;;;;6.97;2.00;;;;;;;24.83;42.49;99053.53;3100788;28;20513;-71
2023/07/31 02:36:46;;;;;;;11.52;2.28;;;;;;;24.83;43.12;99045.53;3088449;28;20478;-69
2023/07/31 02:38:18;;;;;;;5.25;2.30;;;;;;;24.86;43.44;99044.34;3096215;28;20062;-71
2023/07/31 02:39:48;;;;;;;3.65;1.95;;;;;;;24.86;43.55;99044.34;3096542;28;20065;-71
2023/07/31 02:41:20;;;;;;;3.75;2.20;;;;;;;24.84;44.04;99043.69;3095808;28;20050;-71
2023/07/31 02:42:52;;;;;;;6.50;2.58;;;;;;;24.81;44.85;99036.88;3105828;28;20049;-71
2023/07/31 02:44:24;;;;;;;6.60;1.95;;;;;;;24.84;45.54;99041.03;3108539;28;20055;-70
2023/07/31 02:45:55;;;;;;;5.95;2.50;;;;;;;24.84;45.64;99052.50;3100019;28;20058;-71
2023/07/31 02:47:27;;;;;;;5.93;2.50;;;;;;;24.85;45.88;99043.53;3103932;28;20050;-70
2023/07/31 02:48:58;;;;;;;7.13;2.42;;;;;;;24.87;45.99;99041.50;3102741;28;20042;-70
2023/07/31 02:50:29;;;;;;;4.28;2.58;;;;;;;24.88;46.02;99043.16;3102246;28;20123;-70
2023/07/31 02:52:00;;;;;;;11.82;3.00;;;;;;;24.89;46.25;99041.31;3104089;28;20050;-69
2023/07/31 02:53:32;;;;;;;5.20;2.55;;;;;;;24.90;46.79;99042.97;3101786;28;20133;-71
2023/07/31 02:55:03;;;;;;;7.15;2.65;;;;;;;24.91;47.00;99040.16;3099927;28;20050;-71
2023/07/31 02:56:35;;;;;;;5.22;2.83;;;;;;;24.92;47.48;99040.97;3108455;28;20537;-69
2023/07/31 02:58:07;;;;;;;5.90;2.45;;;;;;;24.93;47.54;99034.63;3108029;28;20065;-69
2023/07/31 02:59:39;;;;;;;6.15;2.92;;;;;;;24.90;47.91;99040.31;3108504;28;20053;-69
2023/07/31 03:01:11;;;;;;;4.10;2.80;;;;;;;24.88;48.25;99037.84;3108420;28;20060;-69
2023/07/31 03:02:42;;;;;;;4.72;2.83;;;;;;;24.87;48.49;99040.66;3087080;28;20100;-69
2023/07/31 03:04:14;;;;;;;4.65;3.10;;;;;;;24.89;48.07;99044.00;3107656;28;20068;-69
2023/07/31 03:05:46;;;;;;;6.40;2.63;;;;;;;24.89;48.78;99038.66;3105713;28;20049;-69
2023/07/31 03:07:16;;;;;;;6.40;2.72;;;;;;;24.91;48.87;99036.66;3095982;28;20062;-69
2023/07/31 03:08:48;;;;;;;5.32;3.10;;;;;;;24.85;48.55;99024.88;3097034;28;20054;-71
2023/07/31 03:10:19;;;;;;;10.00;2.97;;;;;;;24.91;48.79;99042.00;3096073;28;20042;-70
2023/07/31 03:11:51;;;;;;;6.47;3.13;;;;;;;24.91;48.95;99036.66;3103665;28;20053;-68
2023/07/31 03:13:23;;;;;;;8.35;3.13;;;;;;;24.90;49.24;99032.31;3108196;28;20056;-69
2023/07/31 03:14:55;;;;;;;5.28;2.95;;;;;;;24.88;49.10;99031.69;3108079;28;20741;-69
2023/07/31 03:16:26;;;;;;;7.43;2.95;;;;;;;24.90;49.45;99041.13;3101716;28;20042;-69
2023/07/31 03:17:57;;;;;;;4.13;3.10;;;;;;;24.90;49.60;99041.13;3100677;28;20054;-68
2023/07/31 03:19:30;;;;;;;6.68;2.83;;;;;;;24.89;50.44;99039.50;3108123;28;20042;-69
2023/07/31 03:21:02;;;;;;;15.02;4.65;;;;;;;24.88;50.98;99039.69;3100348;28;20054;-69
2023/07/31 03:22:34;;;;;;;5.20;3.33;;;;;;;24.84;51.71;99043.69;3098636;28;20420;-70
2023/07/31 03:24:05;;;;;;;7.30;4.27;;;;;;;24.79;52.96;99044.25;3095831;28;20489;-72
2023/07/31 03:25:37;;;;;;;8.55;4.13;;;;;;;24.79;53.92;99048.72;3096956;28;20069;-72
2023/07/31 03:27:08;;;;;;;7.88;3.90;;;;;;;24.74;54.73;99047.44;3104327;28;20056;-70
2023/07/31 03:28:41;;;;;;;7.18;3.80;;;;;;;24.72;55.11;99052.09;3108374;28;20054;-70
2023/07/31 03:30:12;;;;;;;6.90;3.70;;;;;;;24.72;55.81;99057.44;3107821;28;20384;-70
2023/07/31 03:31:44;;;;;;;8.55;3.97;;;;;;;24.70;56.10;99062.13;3097318;28;20050;-69
2023/07/31 03:33:14;;;;;;;9.02;4.28;;;;;;;24.63;57.16;99057.69;3106092;28;20486;-70
2023/07/31 03:34:46;;;;;;;6.72;4.45;;;;;;;24.60;57.32;99064.19;3104657;28;20054;-70
2023/07/31 03:36:18;;;;;;;8.05;4.25;;;;;;;24.58;58.38;99068.03;3095622;28;20057;-70
2023/07/31 03:37:49;;;;;;;5.20;4.38;;;;;;;24.54;58.64;99072.06;3103114;28;20463;-69
2023/07/31 03:39:21;;;;;;;7.05;4.40;;;;;;;24.49;58.95;99069.91;3096079;28;20046;-69
2023/07/31 03:40:52;;;;;;;6.95;4.70;;;;;;;24.47;59.17;99071.94;3095616;28;20051;-70
2023/07/31 03:42:24;;;;;;;6.28;4.40;;;;;;;24.41;60.32;99078.75;3101513;28;20050;-69
2023/07/31 03:43:56;;;;;;;9.85;4.70;;;;;;;24.36;60.31;99073.13;3107855;28;20053;-69
2023/07/31 03:45:28;;;;;;;7.18;4.63;;;;;;;24.27;61.01;99087.47;3102381;28;20042;-68
2023/07/31 03:46:59;;;;;;;7.00;4.35;;;;;;;24.13;61.77;99085.56;3099794;28;20041;-69
2023/07/31 03:48:31;;;;;;;9.75;4.95;;;;;;;24.03;61.96;99097.25;3107938;28;20050;-68
2023/07/31 03:50:02;;;;;;;13.55;4.38;;;;;;;23.99;63.11;99101.25;3102060;28;20157;-68
2023/07/31 03:51:34;;;;;;;7.30;4.47;;;;;;;23.86;63.81;99106.28;3097177;28;20073;-70
2023/07/31 03:53:05;;;;;;;7.35;4.68;;;;;;;23.72;64.74;99115.81;3106626;28;20120;-69
2023/07/31 03:54:36;;;;;;;7.15;4.90;;;;;;;23.59;65.75;99120.78;3098434;28;20058;-71
2023/07/31 03:56:07;;;;;;;10.13;5.25;;;;;;;23.45;66.16;99124.13;3110626;28;20049;-71
2023/07/31 03:57:39;;;;;;;9.27;4.80;;;;;;;23.33;66.70;99113.00;3110384;28;20050;-70
2023/07/31 03:59:11;;;;;;;10.93;4.95;;;;;;;23.24;67.55;99120.16;3105067;28;20056;-70
2023/07/31 04:00:43;;;;;;;6.85;3.95;;;;;;;23.12;68.09;99114.34;3106956;28;20054;-70
2023/07/31 04:02:14;;;;;;;9.95;4.65;;;;;;;23.06;68.28;99114.19;3110334;28;20049;-70
2023/07/31 04:03:46;;;;;;;8.75;4.45;;;;;;;23.03;68.30;99111.88;3109916;28;20046;-70
2023/07/31 04:05:17;;;;;;;8.05;4.20;;;;;;;22.94;68.70;99122.47;3098284;28;20050;-70
2023/07/31 04:06:48;;;;;;;9.82;3.83;;;;;;;22.88;69.07;99117.81;3104066;28;20420;-70
2023/07/31 04:08:19;;;;;;;6.30;3.83;;;;;;;22.83;69.34;99119.28;3105664;28;20050;-70
2023/07/31 04:09:51;;;;;;;6.80;3.90;;;;;;;22.75;69.92;99120.13;3097906;28;20042;-70
2023/07/31 04:11:22;;;;;;;7.22;3.65;;;;;;;22.69;70.09;99126.91;3101503;28;20053;-70
2023/07/31 04:12:54;;;;;;;8.32;4.20;;;;;;;22.63;70.85;99124.09;3108252;28;20103;-70
2023/07/31 04:14:26;;;;;;;8.25;4.20;;;;;;;22.58;71.10;99123.75;3100012;28;20063;-71
2023/07/31 04:15:58;;;;;;;5.05;3.70;;;;;;;22.52;71.60;99122.56;3103493;28;20064;-71
2023/07/31 04:17:28;;;;;;;10.75;4.15;;;;;;;22.48;72.19;99126.53;3110028;28;20050;-72
2023/07/31 04:19:00;;;;;;;8.23;4.90;;;;;;;22.44;72.31;99136.63;3106378;28;20503;-71
2023/07/31 04:20:31;;;;;;;5.72;3.78;;;;;;;22.42;72.28;99133.31;3109094;28;20053;-71
2023/07/31 04:22:03;;;;;;;6.55;3.78;;;;;;;22.40;72.44;99139.78;3109893;28;20506;-71
2023/07/31 04:23:35;;;;;;;9.05;4.20;;;;;;;22.38;72.71;99145.22;3105086;28;20479;-72
2023/07/31 04:25:09;;;;;;;6.38;3.85;;;;;;;22.35;72.74;99139.41;3109436;28;20054;-71
2023/07/31 04:26:41;;;;;;;5.82;3.75;;;;;;;22.29;72.96;99140.06;3109927;28;20046;-72
2023/07/31 04:28:11;;;;;;;8.70;4.00;;;;;;;22.27;73.06;99137.56;3109943;28;20049;-71
2023/07/31 04:29:46;;;;;;;8.30;4.22;;;;;;;22.25;72.99;99140.38;3105976;28;20095;-71
2023/07/31 04:31:17;;;;;;;8.02;4.28;;;;;;;22.22;73.16;99142.53;3101666;28;20057;-70
2023/07/31 04:32:49;;;;;;;7.63;3.67;;;;;;;22.20;73.25;99144.50;3109765;28;20064;-71
2023/07/31 04:34:20;;;;;;;5.75;3.65;;;;;;;22.19;73.51;99142.84;3099714;28;20050;-73
2023/07/31 04:35:53;;;;;;;6.80;4.25;;;;;;;22.21;72.99;99151.47;3098981;28;20153;-72
2023/07/31 04:37:23;;;;;;;6.70;4.45;;;;;;;22.20;73.42;99144.50;3109770;28;20115;-70
2023/07/31 04:38:55;;;;;;;14.10;6.88;;;;;;;22.24;73.05;99143.19;3106377;28;20696;-68
2023/07/31 04:40:26;;;;;;;9.95;5.93;;;;;;;22.28;72.94;99149.84;3104397;28;20440;-69
2023/07/31 04:41:59;;;;;;;12.77;8.85;;;;;;;22.35;72.93;99150.84;3099614;28;20054;-69
2023/07/31 04:43:30;;;;;;;6.28;5.30;;;;;;;22.42;72.72;99149.25;3106862;28;20145;-71
2023/07/31 04:45:04;;;;;;;11.30;6.03;;;;;;;22.52;72.40;99148.28;3108106;28;20054;-69
2023/07/31 04:46:35;;;;;;;8.43;4.45;;;;;;;22.56;72.04;99147.75;3108115;28;20487;-71
2023/07/31 04:48:07;;;;;;;16.33;12.50;;;;;;;22.62;72.26;99133.84;3109482;28;20521;-72
2023/07/31 04:49:38;;;;;;;10.93;6.20;;;;;;;22.70;71.71;99138.34;3100449;28;20052;-73
2023/07/31 04:51:10;;;;;;;11.18;6.38;;;;;;;22.77;71.56;99134.03;3109500;28;20053;-74
2023/07/31 04:52:41;;;;;;;11.50;5.95;;;;;;;22.86;71.46;99145.50;3097715;28;20555;-74
2023/07/31 04:54:14;;;;;;;6.65;4.72;;;;;;;22.91;71.34;99141.38;3103607;28;20057;-74
2023/07/31 04:55:45;;;;;;;10.48;4.55;;;;;;;22.93;71.09;99142.03;3101798;28;20437;-71
2023/07/31 04:57:17;;;;;;;8.35;4.93;;;;;;;22.94;71.02;99137.56;3104776;28;20057;-70
2023/07/31 04:58:49;;;;;;;8.77;4.40;;;;;;;22.98;70.48;99141.56;3109812;28;20049;-70
2023/07/31 05:00:21;;;;;;;9.60;3.95;;;;;;;23.00;70.70;99139.56;3108382;28;20050;-72
2023/07/31 05:01:53;;;;;;;7.70;4.78;;;;;;;23.00;70.48;99139.56;3105262;28;20050;-72
2023/07/31 05:03:25;;;;;;;10.00;7.00;;;;;;;22.99;70.60;99135.28;3098597;28;20590;-71
2023/07/31 05:04:57;;;;;;;10.63;5.13;;;;;;;22.99;70.57;99139.75;3108342;28;20115;-71
2023/07/31 05:06:28;;;;;;;7.15;4.75;;;;;;;23.03;70.14;99141.06;3109423;28;20068;-71
2023/07/31 05:08:00;;;;;;;8.85;4.60;;;;;;;23.05;70.42;99137.25;3104314;28;20054;-72
2023/07/31 05:09:32;;;;;;;6.78;4.30;;;;;;;23.09;70.12;99135.94;3099574;28;20046;-72
2023/07/31 05:11:04;;;;;;;13.77;4.13;;;;;;;23.14;69.97;99130.13;3109699;28;20455;-71
2023/07/31 05:12:35;;;;;;;7.50;4.22;;;;;;;23.17;69.91;99137.78;3109207;28;20136;-72
2023/07/31 05:14:07;;;;;;;10.05;4.53;;;;;;;23.19;69.41;99135.78;3109200;28;20058;-72
2023/07/31 05:15:41;;;;;;;6.70;4.40;;;;;;;23.26;69.30;99131.44;3104436;28;20046;-73
2023/07/31 05:17:13;;;;;;;7.88;3.97;;;;;;;23.31;69.12;99142.41;3109285;28;20066;-72
2023/07/31 05:18:44;;;;;;;7.68;4.13;;;;;;;23.34;69.03;99134.09;3097058;28;20417;-72
2023/07/31 05:20:17;;;;;;;5.63;4.25;;;;;;;23.43;68.59;99142.09;3096438;28;20050;-71
2023/07/31 05:21:48;;;;;;;6.40;3.88;;;;;;;23.45;68.44;99140.88;3108069;28;20137;-74
2023/07/31 05:23:20;;;;;;;4.90;3.97;;;;;;;23.48;68.22;99134.41;3100746;28;20130;-77
2023/07/31 05:24:51;;;;;;;6.50;4.05;;;;;;;23.53;68.30;99143.53;3094449;28;20439;-71
2023/07/31 05:26:23;;;;;;;5.18;3.60;;;;;;;23.60;68.34;99138.38;3106726;28;20046;-74
2023/07/31 05:27:55;;;;;;;5.38;3.35;;;;;;;23.63;67.91;99143.34;3108575;28;20062;-73
2023/07/31 05:29:25;;;;;;;7.22;3.80;;;;;;;23.67;67.59;99147.34;3108743;28;20056;-73
2023/07/31 05:31:01;;;;;;;10.05;3.72;;;;;;;23.73;67.24;99137.91;3108819;28;20054;-73
2023/07/31 05:32:32;;;;;;;9.75;4.40;;;;;;;23.76;67.10;99146.34;3107999;28;20080;-73
2023/07/31 05:34:04;;;;;;;10.63;4.20;;;;;;;23.79;66.58;99150.50;3096720;28;20054;-73
2023/07/31 05:35:36;;;;;;;9.05;4.15;;;;;;;23.82;66.37;99151.00;3096884;28;20065;-73
2023/07/31 05:37:08;;;;;;;7.70;3.88;;;;;;;23.86;66.22;99148.00;3107247;28;20046;-76
2023/07/31 05:38:39;;;;;;;8.63;3.58;;;;;;;23.87;66.11;99153.16;3099932;28;20050;-74
2023/07/31 05:40:11;;;;;;;5.28;3.40;;;;;;;23.90;66.01;99150.16;3096688;28;20097;-74
2023/07/31 05:41:42;;;;;;;7.93;4.03;;;;;;;23.87;66.12;99160.28;3096876;28;20057;-76
2023/07/31 05:43:14;;;;;;;5.60;3.50;;;;;;;23.86;65.64;99156.78;3105498;28;20308;-77
2023/07/31 05:44:45;;;;;;;5.13;3.72;;;;;;;23.83;65.42;99160.63;3108530;28;20444;-74
2023/07/31 05:46:18;;;;;;;7.80;4.13;;;;;;;23.81;64.98;99157.31;3104957;28;20049;-75
2023/07/31 05:47:50;;;;;;;;;;;;;;;23.61;65.42;99163.97;3109003;28;20058;-74
2023/07/31 05:49:21;;;;;;;11.98;4.53;;;;;;;23.70;65.19;99164.81;3098850;28;20737;-74
2023/07/31 05:50:53;;;;;;;7.90;4.43;;;;;;;23.76;64.95;99159.66;3096426;28;20050;-74
2023/07/31 05:52:24;;;;;;;7.07;4.70;;;;;;;23.80;65.10;99163.63;3103306;28;20058;-74
2023/07/31 05:53:56;;;;;;;9.23;4.80;;;;;;;23.88;64.82;99165.44;3099000;28;20109;-73
2023/07/31 05:55:28;;;;;;;7.82;4.63;;;;;;;23.92;64.67;99168.59;3102397;28;20045;-74
2023/07/31 05:56:59;;;;;;;6.75;4.70;;;;;;;23.93;64.76;99163.09;3108453;28;20047;-72
2023/07/31 05:58:31;;;;;;;7.55;4.60;;;;;;;24.02;64.85;99161.25;3108574;28;20048;-74
2023/07/31 06:00:02;;;;;;;6.72;5.15;;;;;;;24.11;64.44;99162.03;3108489;28;20052;-73
2023/07/31 06:01:39;;;;;;;10.85;4.53;;;;;;;24.22;63.98;99159.81;3104766;28;20053;-72
2023/07/31 06:03:10;;;;;;;11.13;4.70;;;;;;;24.27;63.95;99156.66;3099320;28;20058;-73
2023/07/31 06:04:42;;;;;;;10.25;5.38;;;;;;;24.45;63.67;99164.44;3108397;28;20439;-73
2023/07/31 06:06:13;;;;;;;9.65;5.07;;;;;;;24.58;62.99;99159.38;3101016;28;20050;-73
2023/07/31 06:07:46;;;;;;;8.40;5.40;;;;;;;24.72;62.95;99157.78;3099516;28;20064;-73
2023/07/31 06:09:16;;;;;;;8.95;5.68;;;;;;;24.82;62.47;99149.59;3084761;28;20050;-73
2023/07/31 06:10:48;;;;;;;8.00;5.18;;;;;;;24.93;61.71;99155.31;3108515;28;20117;-75
2023/07/31 06:12:19;;;;;;;10.95;5.53;;;;;;;25.06;60.81;99156.56;3100453;28;20061;-75
2023/07/31 06:13:51;;;;;;;6.47;4.85;;;;;;;25.16;60.20;99155.34;3107295;28;20483;-76
2023/07/31 06:15:22;;;;;;;7.65;6.05;;;;;;;25.34;59.71;99154.19;3105580;28;20061;-73
2023/07/31 06:16:55;;;;;;;8.15;5.35;;;;;;;25.55;58.40;99148.16;3105006;28;20050;-73
2023/07/31 06:18:26;;;;;;;;;;;;;;;25.61;58.10;99156.25;3096473;28;20051;-72
2023/07/31 06:19:58;;;;;;;10.20;5.40;;;;;;;25.76;56.95;99158.13;3097621;28;19956;-72
2023/07/31 06:21:29;;;;;;;7.82;5.47;;;;;;;25.89;56.48;99155.69;3102859;28;20157;-72
2023/07/31 06:23:02;;;;;;;11.27;6.88;;;;;;;26.03;56.18;99162.00;3099642;28;20050;-72
2023/07/31 06:24:33;;;;;;;11.75;5.95;;;;;;;26.10;55.84;99161.09;3104152;28;20092;-71
2023/07/31 06:26:05;;;;;;;9.73;6.57;;;;;;;26.12;55.81;99157.41;3108572;28;20054;-73
2023/07/31 06:27:36;;;;;;;10.00;6.63;;;;;;;26.12;55.70;99158.28;3107918;28;20073;-73
2023/07/31 06:29:08;;;;;;;9.07;6.55;;;;;;;26.20;55.71;99170.66;3108069;28;20456;-72
2023/07/31 06:30:39;;;;;;;8.27;6.35;;;;;;;26.25;55.17;99158.41;3108421;28;20061;-72
2023/07/31 06:32:12;;;;;;;8.35;6.30;;;;;;;26.34;55.38;99159.16;3096184;28;20452;-71
2023/07/31 06:33:43;;;;;;;13.88;6.97;;;;;;;26.37;54.92;99158.78;3095674;28;20516;-72
2023/07/31 06:35:16;;;;;;;9.10;6.55;;;;;;;26.37;54.59;99158.78;3103378;28;20538;-73
2023/07/31 06:36:47;;;;;;;11.30;7.40;;;;;;;26.39;54.50;99162.09;3108239;28;20092;-71
2023/07/31 06:38:23;;;;;;;13.48;6.57;;;;;;;26.45;54.56;99164.00;3103273;28;20877;-70
2023/07/31 06:39:56;;;;;;;7.93;6.25;;;;;;;26.51;54.59;99157.13;3095620;28;20508;-74
2023/07/31 06:41:27;;;;;;;12.13;6.95;;;;;;;26.61;54.46;99159.50;3095994;28;20057;-74
2023/07/31 06:42:59;;;;;;;9.50;6.53;;;;;;;26.71;54.18;99166.19;3100677;28;20050;-74
2023/07/31 06:44:30;;;;;;;10.13;6.10;;;;;;;26.78;53.56;99156.41;3107985;28;20071;-73
2023/07/31 06:46:06;;;;;;;12.02;7.10;;;;;;;26.81;53.76;99149.84;3098336;28;20050;-74
2023/07/31 06:47:40;;;;;;;10.60;6.88;;;;;;;26.85;53.59;99143.09;3099709;28;20050;-76
2023/07/31 06:49:12;;;;;;;9.85;7.00;;;;;;;26.89;53.12;99148.91;3096038;28;20057;-73
2023/07/31 06:50:43;;;;;;;9.65;7.53;;;;;;;26.95;53.12;99142.81;3101646;28;20137;-74
2023/07/31 06:52:15;;;;;;;15.88;7.43;;;;;;;27.03;52.89;99148.00;3104231;28;20057;-74
2023/07/31 06:53:46;;;;;;;11.23;7.40;;;;;;;27.12;52.67;99154.88;3099635;28;20081;-74
2023/07/31 06:55:20;;;;;;;11.38;7.30;;;;;;;27.19;52.59;99144.28;3105036;28;20050;-76
2023/07/31 06:56:52;;;;;;;11.02;7.38;;;;;;;27.22;52.33;99158.09;3095275;28;20129;-76
2023/07/31 06:58:23;;;;;;;10.02;7.32;;;;;;;27.26;52.34;99155.84;3104820;28;20104;-75
2023/07/31 06:59:55;;;;;;;11.63;7.75;;;;;;;27.28;51.73;99151.16;3107242;28;20053;-76
2023/07/31 07:01:27;;;;;;;12.00;6.57;;;;;;;27.34;51.48;99158.41;3098938;28;20883;-75
2023/07/31 07:03:00;;;;;;;10.90;7.57;;;;;;;27.38;51.34;99154.31;3099859;28;20111;-77
2023/07/31 07:04:32;;;;;;;12.02;8.05;;;;;;;27.43;51.46;99151.06;3107631;28;20308;-74
2023/07/31 07:06:03;;;;;;;14.25;7.00;;;;;;;27.48;51.09;99145.13;3107661;28;20054;-77
2023/07/31 07:07:35;;;;;;;9.77;7.45;;;;;;;27.57;50.73;99143.97;3108125;28;20081;-76
2023/07/31 07:09:07;;;;;;;11.95;7.60;;;;;;;27.60;50.83;99143.59;3095505;28;20451;-71
2023/07/31 07:10:39;;;;;;;7.45;6.53;;;;;;;27.66;50.60;99156.16;3100705;28;20058;-71
2023/07/31 07:12:10;;;;;;;13.13;8.05;;;;;;;27.68;50.30;99149.59;3097067;28;20057;-71